createdAt,value
2022-12-11T00:00:43.107Z,19.13
2022-12-11T00:01:49.273Z,20.57
2022-12-11T00:02:53.786Z,19.93
2022-12-11T00:03:55.368Z,20.07
2022-12-11T00:05:02.220Z,18.80
2022-12-11T00:06:07.641Z,18.90
2022-12-11T00:07:09.038Z,19.37
2022-12-11T00:08:13.325Z,20.33
2022-12-11T00:09:15.549Z,19.93
2022-12-11T00:10:17.003Z,19.03
2022-12-11T00:11:20.159Z,19.67
2022-12-11T00:12:24.549Z,19.93
2022-12-11T00:13:27.086Z,19.23
2022-12-11T00:14:34.141Z,20.10
2022-12-11T00:15:37.701Z,19.87
2022-12-11T00:16:39.666Z,19.83
2022-12-11T00:17:43.803Z,19.83
2022-12-11T00:18:45.314Z,20.63
2022-12-11T00:19:49.433Z,20.23
2022-12-11T00:20:50.746Z,19.37
2022-12-11T00:21:52.279Z,19.60
2022-12-11T00:22:54.060Z,19.20
2022-12-11T00:23:55.821Z,19.40
2022-12-11T00:25:03.980Z,19.00
2022-12-11T00:26:07.171Z,19.90
2022-12-11T00:27:11.113Z,20.17
2022-12-11T00:28:13.624Z,19.00
2022-12-11T00:29:15.299Z,20.63
2022-12-11T00:30:19.502Z,20.17
2022-12-11T00:31:21.646Z,18.90
2022-12-11T00:32:23.403Z,19.33
2022-12-11T00:33:27.299Z,19.43
2022-12-11T00:34:28.913Z,18.00
2022-12-11T00:35:30.397Z,19.13
2022-12-11T00:36:31.953Z,19.33
2022-12-11T00:37:33.568Z,19.30
2022-12-11T00:38:35.176Z,18.80
2022-12-11T00:39:37.121Z,20.13
2022-12-11T00:40:38.547Z,20.17
2022-12-11T00:41:41.552Z,18.80
2022-12-11T00:42:42.999Z,20.63
2022-12-11T00:43:46.840Z,19.67
2022-12-11T00:44:50.110Z,19.67
2022-12-11T00:45:53.041Z,19.83
2022-12-11T00:46:54.412Z,18.70
2022-12-11T00:47:59.094Z,18.10
2022-12-11T00:49:03.023Z,18.97
2022-12-11T00:50:07.526Z,20.00
2022-12-11T00:51:10.455Z,19.83
2022-12-11T00:52:11.842Z,20.03
2022-12-11T00:53:13.475Z,20.13
2022-12-11T00:54:14.837Z,20.00
2022-12-11T00:55:16.393Z,19.40
2022-12-11T00:56:19.073Z,19.77
2022-12-11T00:57:20.512Z,20.43
2022-12-11T00:58:22.627Z,20.30
2022-12-11T00:59:25.485Z,19.37
2022-12-11T01:00:27.139Z,20.17
2022-12-11T01:01:37.264Z,19.80
2022-12-11T01:02:49.607Z,19.13
2022-12-11T01:04:04.060Z,19.73
2022-12-11T01:05:06.126Z,19.70
2022-12-11T01:06:07.817Z,19.93
2022-12-11T01:07:09.298Z,21.00
2022-12-11T01:08:10.747Z,19.97
2022-12-11T01:09:30.756Z,19.10
2022-12-11T01:10:32.717Z,19.67
2022-12-11T01:11:34.124Z,19.67
2022-12-11T01:12:35.513Z,19.20
2022-12-11T01:13:37.098Z,19.67
2022-12-11T01:14:38.530Z,19.70
2022-12-11T01:15:42.019Z,20.00
2022-12-11T01:16:43.613Z,19.03
2022-12-11T01:17:45.058Z,20.30
2022-12-11T01:18:46.376Z,20.07
2022-12-11T01:19:47.772Z,19.90
2022-12-11T01:20:49.213Z,20.03
2022-12-11T01:21:50.616Z,20.10
2022-12-11T01:22:53.542Z,20.47
2022-12-11T01:23:54.960Z,20.80
2022-12-11T01:24:56.356Z,21.03
2022-12-11T01:25:57.713Z,21.07
2022-12-11T01:26:59.129Z,20.57
2022-12-11T01:28:00.595Z,21.33
2022-12-11T01:29:01.974Z,21.63
2022-12-11T01:30:04.958Z,20.83
2022-12-11T01:31:10.319Z,21.63
2022-12-11T01:32:11.769Z,21.60
2022-12-11T01:33:13.226Z,20.97
2022-12-11T01:34:14.874Z,20.80
2022-12-11T01:35:16.823Z,21.47
2022-12-11T01:36:20.030Z,20.43
2022-12-11T01:37:21.544Z,20.13
2022-12-11T01:38:23.073Z,19.67
2022-12-11T01:39:24.631Z,19.93
2022-12-11T01:40:26.368Z,20.57
2022-12-11T01:41:27.786Z,22.20
2022-12-11T01:42:29.672Z,22.70
2022-12-11T01:43:31.070Z,22.23
2022-12-11T01:44:32.414Z,22.23
2022-12-11T01:45:40.335Z,22.07
2022-12-11T01:46:42.796Z,20.90
2022-12-11T01:47:44.187Z,22.00
2022-12-11T01:48:45.501Z,23.37
2022-12-11T01:49:46.816Z,22.67
2022-12-11T01:50:48.129Z,21.80
2022-12-11T01:51:53.054Z,23.73
2022-12-11T01:52:54.473Z,24.60
2022-12-11T01:54:00.541Z,23.60
2022-12-11T01:55:02.039Z,24.37
2022-12-11T01:56:04.117Z,25.43
2022-12-11T01:57:06.698Z,24.63
2022-12-11T01:58:08.590Z,26.07
2022-12-11T01:59:10.039Z,25.67
2022-12-11T02:00:12.390Z,25.83
2022-12-11T02:01:22.822Z,26.87
2022-12-11T02:02:29.308Z,26.73
2022-12-11T02:03:30.961Z,25.00
2022-12-11T02:04:33.041Z,25.93
2022-12-11T02:05:34.407Z,25.63
2022-12-11T02:06:43.693Z,25.97
2022-12-11T02:07:50.858Z,25.93
2022-12-11T02:08:52.285Z,25.50
2022-12-11T02:09:53.671Z,26.37
2022-12-11T02:11:01.372Z,26.13
2022-12-11T02:12:08.551Z,26.10
2022-12-11T02:13:15.035Z,27.20
2022-12-11T02:14:36.615Z,25.17
2022-12-11T02:15:42.405Z,25.07
2022-12-11T02:16:46.945Z,26.80
2022-12-11T02:17:51.082Z,27.80
2022-12-11T02:18:58.880Z,26.83
2022-12-11T02:20:03.827Z,26.43
2022-12-11T02:21:24.482Z,25.83
2022-12-11T02:22:29.070Z,25.27
2022-12-11T02:23:33.232Z,24.37
2022-12-11T02:24:37.603Z,26.43
2022-12-11T02:25:54.224Z,24.97
2022-12-11T02:27:14.677Z,25.13
2022-12-11T02:28:27.914Z,24.77
2022-12-11T02:29:38.005Z,25.03
2022-12-11T02:30:40.259Z,24.87
2022-12-11T02:31:45.036Z,25.50
2022-12-11T02:32:50.136Z,26.10
2022-12-11T02:34:09.851Z,24.07
2022-12-11T02:35:20.473Z,23.93
2022-12-11T02:36:23.652Z,26.43
2022-12-11T02:37:26.835Z,25.17
2022-12-11T02:38:31.056Z,25.63
2022-12-11T02:39:35.820Z,26.27
2022-12-11T02:40:39.034Z,26.43
2022-12-11T02:41:43.133Z,26.93
2022-12-11T02:42:45.301Z,26.47
2022-12-11T02:43:47.973Z,26.40
2022-12-11T02:44:50.550Z,25.73
2022-12-11T02:45:53.356Z,25.03
2022-12-11T02:46:55.029Z,25.87
2022-12-11T02:47:58.810Z,25.80
2022-12-11T02:49:02.279Z,24.83
2022-12-11T02:50:07.293Z,25.00
2022-12-11T02:51:10.023Z,24.80
2022-12-11T02:52:12.379Z,25.60
2022-12-11T02:53:15.444Z,25.53
2022-12-11T02:54:20.534Z,24.70
2022-12-11T02:55:22.483Z,25.87
2022-12-11T02:56:30.560Z,25.03
2022-12-11T02:57:50.462Z,23.73
2022-12-11T02:58:58.717Z,22.30
2022-12-11T03:00:00.293Z,23.67
2022-12-11T03:01:01.822Z,23.50
2022-12-11T03:02:03.887Z,22.70
2022-12-11T03:03:05.440Z,23.57
2022-12-11T03:04:06.885Z,24.33
2022-12-11T03:05:09.270Z,23.80
2022-12-11T03:06:13.210Z,23.57
2022-12-11T03:07:19.338Z,21.87
2022-12-11T03:08:20.818Z,23.77
2022-12-11T03:09:22.340Z,23.63
2022-12-11T03:10:23.833Z,23.80
2022-12-11T03:11:25.202Z,24.40
2022-12-11T03:12:31.336Z,23.17
2022-12-11T03:13:32.705Z,23.47
2022-12-11T03:14:34.315Z,22.83
2022-12-11T03:15:41.468Z,23.40
2022-12-11T03:16:45.036Z,23.27
2022-12-11T03:17:46.373Z,23.67
2022-12-11T03:19:06.389Z,25.17
2022-12-11T03:20:07.881Z,23.53
2022-12-11T03:21:19.854Z,24.17
2022-12-11T03:22:24.656Z,25.17
2022-12-11T03:23:55.398Z,24.40
2022-12-11T03:25:06.652Z,23.13
2022-12-11T03:26:12.640Z,24.90
2022-12-11T03:27:17.547Z,23.53
2022-12-11T03:28:21.214Z,24.23
2022-12-11T03:29:31.687Z,24.33
2022-12-11T03:30:35.425Z,24.20
2022-12-11T03:31:41.222Z,25.07
2022-12-11T03:33:02.842Z,23.23
2022-12-11T03:34:06.315Z,23.03
2022-12-11T03:35:18.232Z,24.37
2022-12-11T03:36:25.414Z,23.70
2022-12-11T03:37:28.665Z,24.03
2022-12-11T03:38:37.645Z,23.23
2022-12-11T03:39:41.900Z,24.37
2022-12-11T03:40:45.296Z,25.00
2022-12-11T03:41:46.792Z,25.03
2022-12-11T03:42:50.299Z,24.57
2022-12-11T03:43:52.589Z,24.97
2022-12-11T03:44:54.822Z,24.07
2022-12-11T03:45:56.892Z,24.70
2022-12-11T03:46:59.919Z,24.53
2022-12-11T03:48:02.424Z,25.20
2022-12-11T03:49:15.294Z,25.10
2022-12-11T03:50:17.962Z,25.93
2022-12-11T03:51:20.051Z,24.73
2022-12-11T03:52:22.241Z,24.10
2022-12-11T03:53:24.891Z,26.20
2022-12-11T03:54:26.908Z,26.07
2022-12-11T03:55:29.461Z,25.63
2022-12-11T03:56:32.902Z,25.80
2022-12-11T03:57:35.907Z,25.07
2022-12-11T03:58:37.266Z,26.23
2022-12-11T03:59:38.607Z,25.10
2022-12-11T04:00:39.928Z,25.70
2022-12-11T04:01:41.974Z,26.63
2022-12-11T04:02:43.849Z,26.30
2022-12-11T04:03:45.266Z,26.20
2022-12-11T04:04:46.576Z,26.53
2022-12-11T04:05:50.988Z,26.57
2022-12-11T04:06:52.358Z,25.90
2022-12-11T04:07:53.710Z,26.50
2022-12-11T04:08:55.027Z,25.90
2022-12-11T04:09:56.343Z,26.43
2022-12-11T04:11:16.097Z,25.53
2022-12-11T04:12:17.445Z,26.13
2022-12-11T04:13:18.764Z,26.60
2022-12-11T04:14:38.447Z,27.07
2022-12-11T04:15:40.159Z,24.57
2022-12-11T04:16:41.603Z,26.47
2022-12-11T04:18:01.792Z,26.90
2022-12-11T04:19:22.301Z,25.83
2022-12-11T04:20:42.412Z,23.77
2022-12-11T04:22:02.252Z,25.83
2022-12-11T04:23:22.985Z,26.70
2022-12-11T04:24:24.329Z,25.73
2022-12-11T04:25:25.660Z,25.23
2022-12-11T04:26:27.106Z,25.30
2022-12-11T04:27:47.424Z,25.80
2022-12-11T04:28:49.304Z,26.33
2022-12-11T04:29:50.709Z,25.17
2022-12-11T04:30:52.106Z,26.10
2022-12-11T04:31:53.513Z,25.50
2022-12-11T04:32:55.368Z,25.00
2022-12-11T04:33:56.703Z,26.13
2022-12-11T04:34:58.033Z,25.20
2022-12-11T04:36:00.145Z,26.53
2022-12-11T04:37:01.522Z,26.47
2022-12-11T04:38:02.946Z,25.87
2022-12-11T04:39:04.924Z,25.37
2022-12-11T04:40:07.741Z,26.97
2022-12-11T04:41:10.441Z,25.30
2022-12-11T04:42:11.779Z,26.37
2022-12-11T04:43:13.139Z,25.60
2022-12-11T04:44:14.454Z,25.40
2022-12-11T04:45:15.798Z,25.73
2022-12-11T04:46:18.901Z,24.87
2022-12-11T04:47:20.311Z,26.67
2022-12-11T04:48:21.679Z,25.17
2022-12-11T04:49:22.968Z,25.97
2022-12-11T04:50:24.289Z,25.73
2022-12-11T04:51:26.277Z,26.13
2022-12-11T04:52:27.624Z,25.93
2022-12-11T04:53:29.061Z,25.57
2022-12-11T04:54:32.357Z,26.00
2022-12-11T04:55:33.640Z,25.50
2022-12-11T04:56:34.926Z,25.10
2022-12-11T04:57:36.481Z,25.77
2022-12-11T04:58:38.209Z,25.43
2022-12-11T04:59:39.666Z,26.50
2022-12-11T05:00:41.229Z,24.43
2022-12-11T05:01:42.593Z,25.87
2022-12-11T05:02:44.176Z,25.37
2022-12-11T05:03:45.983Z,25.60
2022-12-11T05:04:47.327Z,25.00
2022-12-11T05:05:52.677Z,24.57
2022-12-11T05:06:54.024Z,25.13
2022-12-11T05:07:55.347Z,25.73
2022-12-11T05:08:56.746Z,25.53
2022-12-11T05:09:58.144Z,24.80
2022-12-11T05:11:00.394Z,24.97
2022-12-11T05:12:01.853Z,26.57
2022-12-11T05:13:03.377Z,25.83
2022-12-11T05:14:04.948Z,24.53
2022-12-11T05:15:06.494Z,25.17
2022-12-11T05:16:08.855Z,24.30
2022-12-11T05:17:10.317Z,25.93
2022-12-11T05:18:11.702Z,25.00
2022-12-11T05:19:13.366Z,24.90
2022-12-11T05:20:14.714Z,25.77
2022-12-11T05:21:16.254Z,25.17
2022-12-11T05:22:18.313Z,25.10
2022-12-11T05:23:19.640Z,26.83
2022-12-11T05:24:20.993Z,24.40
2022-12-11T05:25:22.875Z,26.33
2022-12-11T05:26:24.244Z,25.73
2022-12-11T05:27:25.596Z,25.93
2022-12-11T05:28:27.941Z,26.07
2022-12-11T05:29:29.263Z,26.00
2022-12-11T05:30:30.604Z,26.00
2022-12-11T05:31:32.024Z,25.30
2022-12-11T05:32:33.383Z,24.23
2022-12-11T05:33:34.812Z,26.17
2022-12-11T05:34:36.220Z,24.80
2022-12-11T05:35:37.578Z,24.33
2022-12-11T05:36:38.948Z,26.70
2022-12-11T05:37:40.905Z,26.20
2022-12-11T05:38:42.239Z,26.20
2022-12-11T05:39:43.580Z,26.97
2022-12-11T05:40:45.024Z,25.70
2022-12-11T05:41:46.415Z,25.20
2022-12-11T05:42:47.794Z,26.17
2022-12-11T05:43:49.138Z,25.40
2022-12-11T05:44:50.494Z,25.13
2022-12-11T05:45:51.905Z,25.83
2022-12-11T05:46:53.305Z,25.53
2022-12-11T05:47:54.665Z,26.27
2022-12-11T05:48:57.890Z,25.73
2022-12-11T05:49:59.212Z,24.93
2022-12-11T05:51:01.266Z,27.43
2022-12-11T05:52:02.604Z,24.90
2022-12-11T05:53:05.267Z,25.70
2022-12-11T05:54:06.964Z,26.40
2022-12-11T05:55:09.600Z,26.33
2022-12-11T05:56:13.023Z,26.13
2022-12-11T05:57:14.325Z,25.97
2022-12-11T05:58:15.662Z,25.97
2022-12-11T05:59:18.876Z,27.80
2022-12-11T06:00:20.277Z,25.20
2022-12-11T06:01:23.984Z,25.63
2022-12-11T06:02:25.412Z,25.87
2022-12-11T06:03:26.979Z,26.03
2022-12-11T06:04:28.280Z,26.33
2022-12-11T06:05:29.590Z,26.47
2022-12-11T06:06:31.471Z,27.33
2022-12-11T06:07:32.812Z,26.73
2022-12-11T06:08:34.441Z,25.10
2022-12-11T06:09:35.869Z,27.57
2022-12-11T06:10:37.256Z,26.80
2022-12-11T06:11:38.992Z,26.80
2022-12-11T06:12:40.914Z,26.97
2022-12-11T06:13:42.248Z,26.57
2022-12-11T06:14:43.728Z,26.43
2022-12-11T06:15:45.042Z,27.63
2022-12-11T06:16:46.360Z,26.10
2022-12-11T06:17:47.808Z,27.37
2022-12-11T06:18:49.261Z,26.33
2022-12-11T06:19:50.624Z,26.87
2022-12-11T06:20:51.965Z,27.03
2022-12-11T06:21:53.244Z,26.63
2022-12-11T06:22:54.644Z,26.67
2022-12-11T06:23:57.165Z,27.13
2022-12-11T06:24:58.464Z,27.63
2022-12-11T06:25:59.812Z,27.63
2022-12-11T06:27:01.116Z,27.07
2022-12-11T06:28:02.768Z,26.63
2022-12-11T06:29:07.633Z,25.90
2022-12-11T06:30:12.392Z,27.17
2022-12-11T06:31:13.871Z,27.10
2022-12-11T06:32:17.044Z,26.70
2022-12-11T06:33:18.356Z,26.63
2022-12-11T06:34:19.724Z,26.83
2022-12-11T06:35:21.067Z,27.20
2022-12-11T06:36:23.403Z,27.80
2022-12-11T06:37:25.143Z,26.40
2022-12-11T06:38:26.475Z,26.87
2022-12-11T06:39:27.829Z,26.70
2022-12-11T06:40:29.213Z,26.90
2022-12-11T06:41:30.493Z,26.83
2022-12-11T06:42:31.825Z,26.07
2022-12-11T06:43:34.197Z,27.00
2022-12-11T06:44:35.581Z,26.83
2022-12-11T06:45:37.308Z,26.53
2022-12-11T06:46:38.826Z,26.87
2022-12-11T06:47:40.301Z,26.27
2022-12-11T06:48:42.249Z,25.80
2022-12-11T06:49:43.713Z,26.47
2022-12-11T06:50:45.131Z,25.80
2022-12-11T06:51:46.548Z,28.00
2022-12-11T06:52:48.251Z,27.13
2022-12-11T06:53:53.265Z,25.60
2022-12-11T06:54:54.944Z,26.70
2022-12-11T06:55:56.285Z,27.23
2022-12-11T06:56:57.633Z,26.87
2022-12-11T06:57:58.963Z,25.93
2022-12-11T06:59:05.741Z,27.47
2022-12-11T07:00:09.037Z,26.47
2022-12-11T07:01:16.218Z,27.13
2022-12-11T07:02:21.080Z,26.57
2022-12-11T07:03:22.469Z,26.47
2022-12-11T07:04:27.097Z,28.70
2022-12-11T07:05:28.495Z,28.63
2022-12-11T07:06:29.846Z,28.73
2022-12-11T07:07:31.250Z,28.60
2022-12-11T07:08:32.554Z,28.70
2022-12-11T07:09:34.159Z,28.57
2022-12-11T07:10:35.496Z,28.87
2022-12-11T07:11:36.852Z,27.90
2022-12-11T07:12:38.368Z,27.97
2022-12-11T07:13:41.883Z,28.87
2022-12-11T07:14:43.219Z,29.23
2022-12-11T07:15:44.648Z,29.43
2022-12-11T07:16:46.460Z,30.10
2022-12-11T07:17:47.940Z,27.37
2022-12-11T07:18:50.378Z,28.73
2022-12-11T07:19:51.808Z,29.03
2022-12-11T07:20:53.130Z,27.57
2022-12-11T07:21:54.492Z,29.03
2022-12-11T07:22:55.977Z,28.37
2022-12-11T07:23:57.645Z,28.83
2022-12-11T07:24:59.149Z,29.63
2022-12-11T07:26:03.917Z,29.27
2022-12-11T07:27:05.330Z,29.63
2022-12-11T07:28:06.724Z,30.03
2022-12-11T07:29:08.180Z,29.57
2022-12-11T07:30:10.616Z,28.50
2022-12-11T07:31:13.454Z,29.87
2022-12-11T07:32:14.891Z,29.60
2022-12-11T07:33:16.385Z,29.53
2022-12-11T07:34:17.792Z,29.40
2022-12-11T07:35:19.197Z,30.03
2022-12-11T07:36:20.628Z,30.03
2022-12-11T07:37:21.968Z,28.83
2022-12-11T07:38:23.325Z,29.57
2022-12-11T07:39:24.719Z,30.43
2022-12-11T07:40:26.186Z,30.33
2022-12-11T07:41:31.866Z,30.80
2022-12-11T07:42:33.763Z,30.20
2022-12-11T07:43:35.412Z,29.57
2022-12-11T07:44:36.801Z,29.67
2022-12-11T07:45:38.384Z,30.90
2022-12-11T07:46:40.040Z,31.80
2022-12-11T07:47:41.461Z,34.20
2022-12-11T07:48:44.016Z,33.10
2022-12-11T07:49:45.374Z,31.03
2022-12-11T07:50:46.784Z,30.57
2022-12-11T07:51:48.129Z,28.40
2022-12-11T07:52:49.478Z,29.13
2022-12-11T07:53:51.060Z,28.37
2022-12-11T07:54:52.498Z,29.27
2022-12-11T07:55:53.935Z,28.63
2022-12-11T07:56:55.304Z,29.37
2022-12-11T07:57:56.724Z,28.50
2022-12-11T07:59:05.181Z,29.90
2022-12-11T08:00:06.973Z,31.17
2022-12-11T08:01:18.297Z,30.40
2022-12-11T08:02:19.770Z,29.83
2022-12-11T08:03:21.094Z,30.27
2022-12-11T08:04:22.425Z,29.90
2022-12-11T08:05:23.777Z,29.83
2022-12-11T08:06:29.382Z,30.23
2022-12-11T08:07:30.729Z,30.70
2022-12-11T08:08:32.077Z,29.70
2022-12-11T08:09:33.469Z,30.13
2022-12-11T08:10:34.837Z,29.67
2022-12-11T08:11:36.208Z,29.70
2022-12-11T08:12:37.547Z,29.27
2022-12-11T08:13:39.224Z,28.53
2022-12-11T08:14:40.559Z,30.20
2022-12-11T08:15:41.882Z,29.07
2022-12-11T08:16:44.147Z,29.70
2022-12-11T08:17:45.733Z,29.83
2022-12-11T08:18:47.520Z,31.07
2022-12-11T08:19:49.004Z,30.87
2022-12-11T08:20:50.469Z,32.07
2022-12-11T08:21:54.816Z,30.73
2022-12-11T08:22:59.180Z,31.17
2022-12-11T08:24:00.736Z,30.37
2022-12-11T08:25:02.167Z,28.37
2022-12-11T08:26:04.527Z,30.03
2022-12-11T08:27:05.984Z,29.80
2022-12-11T08:28:07.575Z,29.40
2022-12-11T08:29:09.894Z,29.97
2022-12-11T08:30:11.703Z,29.50
2022-12-11T08:31:15.591Z,29.50
2022-12-11T08:32:17.994Z,30.57
2022-12-11T08:33:19.530Z,30.33
2022-12-11T08:34:20.878Z,30.90
2022-12-11T08:35:22.178Z,30.83
2022-12-11T08:36:23.949Z,29.90
2022-12-11T08:37:25.495Z,30.40
2022-12-11T08:38:26.904Z,30.20
2022-12-11T08:39:28.243Z,30.23
2022-12-11T08:40:29.532Z,31.30
2022-12-11T08:41:31.065Z,30.27
2022-12-11T08:42:32.488Z,31.87
2022-12-11T08:43:33.839Z,31.10
2022-12-11T08:44:35.152Z,32.40
2022-12-11T08:45:38.028Z,32.00
2022-12-11T08:46:39.315Z,31.13
2022-12-11T08:47:41.195Z,31.50
2022-12-11T08:48:42.912Z,31.37
2022-12-11T08:49:44.268Z,31.20
2022-12-11T08:50:46.456Z,32.27
2022-12-11T08:51:48.103Z,37.20
2022-12-11T08:52:49.473Z,32.70
2022-12-11T08:53:51.292Z,31.13
2022-12-11T08:54:52.582Z,31.40
2022-12-11T08:55:54.026Z,31.33
2022-12-11T08:56:58.135Z,31.00
2022-12-11T08:58:00.036Z,30.77
2022-12-11T08:59:02.733Z,30.07
2022-12-11T09:00:04.274Z,30.97
2022-12-11T09:01:06.485Z,30.20
2022-12-11T09:02:10.769Z,28.93
2022-12-11T09:03:13.063Z,31.73
2022-12-11T09:04:14.516Z,30.00
2022-12-11T09:05:15.854Z,30.20
2022-12-11T09:06:18.767Z,29.30
2022-12-11T09:07:20.397Z,28.93
2022-12-11T09:08:22.131Z,28.67
2022-12-11T09:09:24.022Z,29.53
2022-12-11T09:10:25.722Z,30.87
2022-12-11T09:11:28.479Z,30.20
2022-12-11T09:12:29.871Z,29.73
2022-12-11T09:13:31.368Z,29.37
2022-12-11T09:14:32.793Z,29.97
2022-12-11T09:15:40.620Z,33.43
2022-12-11T09:16:42.217Z,35.83
2022-12-11T09:17:43.905Z,32.97
2022-12-11T09:18:46.878Z,31.33
2022-12-11T09:19:48.482Z,31.37
2022-12-11T09:20:57.637Z,31.10
2022-12-11T09:21:59.050Z,30.30
2022-12-11T09:23:01.274Z,30.07
2022-12-11T09:24:02.905Z,27.90
2022-12-11T09:25:04.526Z,29.77
2022-12-11T09:26:06.756Z,28.70
2022-12-11T09:27:08.055Z,29.63
2022-12-11T09:28:09.361Z,29.30
2022-12-11T09:29:11.068Z,27.37
2022-12-11T09:30:12.765Z,28.10
2022-12-11T09:31:14.191Z,28.90
2022-12-11T09:32:15.585Z,28.07
2022-12-11T09:33:17.169Z,35.00
2022-12-11T09:34:18.683Z,30.57
2022-12-11T09:35:20.029Z,29.70
2022-12-11T09:36:21.371Z,30.30
2022-12-11T09:37:22.685Z,29.77
2022-12-11T09:38:24.074Z,27.97
2022-12-11T09:39:29.917Z,29.27
2022-12-11T09:40:32.328Z,29.07
2022-12-11T09:41:38.154Z,29.57
2022-12-11T09:42:47.008Z,28.53
2022-12-11T09:44:03.638Z,27.77
2022-12-11T09:45:06.966Z,29.07
2022-12-11T09:46:13.006Z,29.67
2022-12-11T09:47:20.474Z,28.70
2022-12-11T09:48:23.998Z,28.13
2022-12-11T09:49:28.161Z,29.77
2022-12-11T09:50:33.752Z,30.10
2022-12-11T09:51:47.761Z,30.70
2022-12-11T09:53:08.730Z,30.57
2022-12-11T09:54:11.571Z,28.83
2022-12-11T09:55:14.440Z,28.40
2022-12-11T09:56:17.787Z,29.33
2022-12-11T09:57:31.696Z,28.93
2022-12-11T09:58:36.035Z,28.67
2022-12-11T09:59:46.961Z,28.63
2022-12-11T10:00:51.795Z,28.83
2022-12-11T10:02:05.387Z,27.83
2022-12-11T10:03:19.259Z,28.67
2022-12-11T10:04:29.849Z,29.07
2022-12-11T10:05:49.181Z,29.23
2022-12-11T10:07:10.759Z,28.73
2022-12-11T10:08:20.807Z,31.30
2022-12-11T10:09:24.217Z,30.30
2022-12-11T10:10:25.794Z,29.93
2022-12-11T10:11:35.124Z,30.20
2022-12-11T10:12:55.097Z,29.03
2022-12-11T10:14:08.613Z,28.97
2022-12-11T10:15:28.799Z,29.80
2022-12-11T10:16:36.361Z,29.30
2022-12-11T10:17:38.510Z,31.37
2022-12-11T10:18:40.292Z,30.10
2022-12-11T10:19:42.083Z,29.47
2022-12-11T10:20:45.091Z,29.27
2022-12-11T10:21:47.082Z,28.97
2022-12-11T10:22:49.121Z,28.80
2022-12-11T10:23:56.000Z,29.33
2022-12-11T10:25:14.259Z,29.13
2022-12-11T10:26:15.592Z,28.73
2022-12-11T10:27:19.782Z,29.00
2022-12-11T10:28:21.195Z,28.67
2022-12-11T10:29:22.766Z,29.50
2022-12-11T10:30:25.390Z,26.73
2022-12-11T10:31:55.949Z,29.80
2022-12-11T10:33:08.819Z,29.80
2022-12-11T10:34:21.614Z,29.50
2022-12-11T10:35:40.577Z,29.23
2022-12-11T10:36:43.389Z,29.63
2022-12-11T10:37:44.750Z,30.23
2022-12-11T10:38:46.733Z,29.87
2022-12-11T10:39:48.081Z,28.97
2022-12-11T10:40:51.740Z,28.57
2022-12-11T10:41:54.263Z,29.17
2022-12-11T10:42:55.734Z,30.47
2022-12-11T10:43:57.163Z,28.67
2022-12-11T10:45:02.253Z,29.70
2022-12-11T10:46:04.832Z,29.97
2022-12-11T10:47:09.620Z,28.57
2022-12-11T10:48:11.151Z,28.17
2022-12-11T10:49:23.967Z,28.93
2022-12-11T10:50:25.917Z,29.00
2022-12-11T10:51:29.996Z,28.23
2022-12-11T10:52:42.255Z,26.90
2022-12-11T10:53:44.635Z,26.03
2022-12-11T10:54:48.794Z,27.67
2022-12-11T10:55:50.367Z,28.07
2022-12-11T10:56:51.897Z,27.97
2022-12-11T10:58:15.985Z,27.57
2022-12-11T10:59:32.979Z,27.60
2022-12-11T11:00:34.382Z,27.47
2022-12-11T11:01:35.874Z,27.10
2022-12-11T11:02:45.503Z,26.90
2022-12-11T11:03:59.261Z,27.63
2022-12-11T11:05:00.929Z,28.40
2022-12-11T11:06:07.411Z,27.60
2022-12-11T11:07:23.795Z,26.97
2022-12-11T11:08:25.294Z,27.53
2022-12-11T11:09:28.979Z,27.90
2022-12-11T11:10:31.805Z,28.00
2022-12-11T11:11:36.652Z,30.03
2022-12-11T11:12:39.414Z,30.63
2022-12-11T11:13:41.598Z,29.47
2022-12-11T11:14:44.760Z,28.47
2022-12-11T11:15:52.466Z,27.10
2022-12-11T11:16:56.565Z,27.73
2022-12-11T11:18:02.034Z,26.60
2022-12-11T11:19:03.822Z,28.17
2022-12-11T11:20:11.898Z,28.60
2022-12-11T11:21:21.592Z,27.03
2022-12-11T11:22:23.001Z,25.80
2022-12-11T11:23:25.263Z,27.17
2022-12-11T11:24:28.566Z,27.90
2022-12-11T11:25:31.150Z,27.90
2022-12-11T11:27:04.230Z,27.77
2022-12-11T11:28:06.341Z,27.80
2022-12-11T11:29:22.988Z,26.60
2022-12-11T11:30:29.252Z,26.60
2022-12-11T11:31:32.725Z,28.13
2022-12-11T11:32:36.324Z,28.07
2022-12-11T11:33:45.282Z,27.97
2022-12-11T11:34:47.321Z,29.07
2022-12-11T11:35:59.620Z,29.30
2022-12-11T11:37:05.568Z,28.17
2022-12-11T11:38:18.220Z,27.87
2022-12-11T11:39:25.809Z,27.60
2022-12-11T11:40:29.170Z,28.13
2022-12-11T11:41:37.614Z,28.37
2022-12-11T11:42:42.955Z,28.73
2022-12-11T11:43:46.716Z,28.20
2022-12-11T11:44:57.150Z,28.83
2022-12-11T11:46:01.926Z,28.10
2022-12-11T11:47:13.109Z,27.00
2022-12-11T11:48:24.598Z,27.60
2022-12-11T11:49:32.719Z,27.20
2022-12-11T11:50:35.681Z,27.70
2022-12-11T11:51:43.015Z,27.80
2022-12-11T11:52:48.290Z,27.30
2022-12-11T11:53:51.206Z,26.97
2022-12-11T11:54:56.809Z,27.80
2022-12-11T11:56:27.704Z,27.37
2022-12-11T11:57:42.415Z,27.27
2022-12-11T11:58:49.521Z,27.53
2022-12-11T11:59:54.805Z,27.93
2022-12-11T12:00:56.210Z,27.27
2022-12-11T12:02:00.043Z,29.07
2022-12-11T12:03:03.292Z,27.30
2022-12-11T12:04:05.016Z,28.30
2022-12-11T12:05:06.510Z,27.17
2022-12-11T12:06:15.318Z,27.10
2022-12-11T12:07:25.503Z,27.57
2022-12-11T12:08:32.585Z,28.13
2022-12-11T12:09:40.494Z,27.67
2022-12-11T12:10:50.438Z,27.93
2022-12-11T12:11:51.722Z,26.57
2022-12-11T12:13:10.852Z,26.43
2022-12-11T12:14:52.383Z,26.17
2022-12-11T12:15:57.988Z,26.30
2022-12-11T12:17:05.327Z,27.10
2022-12-11T12:18:09.408Z,28.20
2022-12-11T12:19:10.723Z,27.67
2022-12-11T12:20:21.652Z,27.07
2022-12-11T12:21:27.534Z,27.03
2022-12-11T12:22:31.982Z,27.37
2022-12-11T12:23:37.084Z,28.67
2022-12-11T12:24:44.822Z,28.23
2022-12-11T12:25:52.399Z,28.00
2022-12-11T12:26:56.793Z,27.07
2022-12-11T12:28:20.315Z,26.03
2022-12-11T12:29:31.796Z,25.03
2022-12-11T12:30:39.064Z,25.90
2022-12-11T12:31:40.435Z,27.33
2022-12-11T12:33:00.868Z,26.17
2022-12-11T12:34:02.253Z,26.20
2022-12-11T12:35:22.296Z,26.90
2022-12-11T12:36:28.352Z,27.17
2022-12-11T12:37:48.512Z,25.97
2022-12-11T12:38:55.269Z,28.07
2022-12-11T12:40:20.154Z,27.13
2022-12-11T12:41:34.936Z,25.63
2022-12-11T12:42:45.992Z,25.87
2022-12-11T12:44:07.629Z,25.43
2022-12-11T12:45:15.182Z,25.60
2022-12-11T12:46:35.535Z,26.43
2022-12-11T12:47:37.567Z,26.83
2022-12-11T12:48:38.965Z,25.07
2022-12-11T12:49:42.002Z,26.63
2022-12-11T12:50:48.179Z,25.90
2022-12-11T12:51:52.424Z,26.23
2022-12-11T12:52:55.115Z,25.93
2022-12-11T12:54:01.465Z,25.83
2022-12-11T12:55:22.971Z,25.63
2022-12-11T12:56:24.889Z,24.77
2022-12-11T12:57:26.292Z,26.17
2022-12-11T12:58:27.704Z,26.43
2022-12-11T12:59:29.170Z,26.53
2022-12-11T13:00:42.589Z,26.10
2022-12-11T13:01:46.853Z,24.63
2022-12-11T13:02:50.317Z,25.57
2022-12-11T13:03:57.923Z,26.67
2022-12-11T13:05:00.892Z,27.90
2022-12-11T13:06:09.128Z,25.80
2022-12-11T13:07:12.612Z,26.13
2022-12-11T13:08:24.438Z,25.77
2022-12-11T13:09:26.814Z,25.40
2022-12-11T13:10:30.565Z,24.13
2022-12-11T13:11:33.522Z,24.87
2022-12-11T13:12:45.571Z,26.30
2022-12-11T13:14:01.528Z,25.23
2022-12-11T13:15:02.953Z,25.03
2022-12-11T13:16:09.389Z,26.07
2022-12-11T13:17:19.833Z,25.43
2022-12-11T13:18:39.181Z,25.00
2022-12-11T13:19:42.765Z,25.07
2022-12-11T13:20:50.945Z,25.53
2022-12-11T13:22:11.121Z,25.20
2022-12-11T13:23:17.177Z,25.23
2022-12-11T13:24:21.287Z,24.80
2022-12-11T13:25:25.078Z,25.30
2022-12-11T13:26:30.338Z,25.80
2022-12-11T13:27:31.618Z,26.13
2022-12-11T13:28:53.992Z,24.67
2022-12-11T13:30:24.684Z,25.57
2022-12-11T13:31:33.782Z,25.53
2022-12-11T13:32:35.226Z,26.23
2022-12-11T13:33:42.688Z,26.40
2022-12-11T13:34:50.194Z,26.03
2022-12-11T13:36:05.581Z,25.47
2022-12-11T13:37:38.578Z,25.63
2022-12-11T13:38:45.884Z,25.43
2022-12-11T13:39:47.494Z,26.27
2022-12-11T13:40:52.599Z,26.13
2022-12-11T13:41:56.593Z,25.80
2022-12-11T13:43:03.253Z,27.30
2022-12-11T13:44:05.003Z,26.17
2022-12-11T13:45:07.491Z,26.00
2022-12-11T13:46:10.548Z,26.77
2022-12-11T13:47:13.946Z,26.97
2022-12-11T13:48:21.437Z,27.07
2022-12-11T13:49:24.633Z,25.57
2022-12-11T13:50:30.634Z,26.10